Time;durP1;ratioP1;P1;durP2;ratioP2;P2;SDS_P1;SDS_P2;PMS_P1;PMS_P2;Temp;Humidity;BMP_temperature;BMP_pressure;BME280_temperature;BME280_humidity;BME280_pressure;Samples;Min_cycle;Max_cycle;Signal;HPM_P1;HPM_P2
2024/01/27 00:00:18;;;;;;;16.13;2.30;;;;;;;4.15;87.69;102127.47;7396791;19;20533;-67
2024/01/27 00:02:46;;;;;;;19.55;2.72;;;;;;;4.17;86.66;102133.59;7396533;19;20020;-68
2024/01/27 00:05:18;;;;;;;11.90;2.97;;;;;;;4.16;85.44;102137.03;7394718;19;20082;-68
2024/01/27 00:07:46;;;;;;;14.73;2.83;;;;;;;4.19;85.30;102151.81;7395371;19;20027;-68
2024/01/27 00:10:14;;;;;;;14.73;2.30;;;;;;;4.22;86.23;102149.28;7396740;19;20078;-68
2024/01/27 00:12:43;;;;;;;17.15;2.67;;;;;;;4.23;86.62;102141.56;7396651;19;20027;-68
2024/01/27 00:15:12;;;;;;;16.73;2.75;;;;;;;4.25;84.05;102157.19;7394922;19;20030;-67
2024/01/27 00:17:40;;;;;;;21.33;3.08;;;;;;;4.27;82.65;102154.63;7391266;19;20469;-68
2024/01/27 00:20:10;;;;;;;20.73;4.05;;;;;;;4.29;86.60;102156.41;7395962;19;20007;-68
2024/01/27 00:22:41;;;;;;;15.63;2.95;;;;;;;4.30;84.91;102160.78;7396334;19;20066;-67
2024/01/27 00:25:10;;;;;;;16.92;3.67;;;;;;;4.32;85.78;102173.81;7394980;19;20007;-68
2024/01/27 00:27:38;;;;;;;15.75;3.10;;;;;;;4.34;86.71;102159.16;7397007;19;20024;-67
2024/01/27 00:30:11;;;;;;;11.95;2.25;;;;;;;4.33;84.16;102167.78;7396229;19;20010;-68
2024/01/27 00:32:39;;;;;;;16.77;2.97;;;;;;;4.34;85.64;102159.16;7394355;19;20037;-68
2024/01/27 00:35:11;;;;;;;19.15;2.53;;;;;;;4.32;84.86;102159.13;7394311;19;20070;-69
2024/01/27 00:37:42;;;;;;;15.55;2.67;;;;;;;4.34;83.99;102162.63;7393780;19;20014;-68
2024/01/27 00:40:14;;;;;;;19.83;3.05;;;;;;;4.35;82.82;102169.59;7396258;19;20074;-68
2024/01/27 00:42:43;;;;;;;14.65;2.85;;;;;;;4.36;84.56;102162.66;7395435;19;20011;-67
2024/01/27 00:45:12;;;;;;;17.85;2.67;;;;;;;4.32;81.66;102161.72;7395622;19;20073;-68
2024/01/27 00:47:40;;;;;;;15.32;2.80;;;;;;;4.33;83.06;102166.06;7394604;19;20035;-68
2024/01/27 00:50:11;;;;;;;19.55;2.95;;;;;;;4.32;80.61;102158.22;7393424;19;20006;-67
2024/01/27 00:52:42;;;;;;;13.73;2.88;;;;;;;4.31;81.73;102175.53;7395425;19;20018;-68
2024/01/27 00:55:11;;;;;;;15.68;2.25;;;;;;;4.30;80.79;102173.78;7395798;19;20031;-68
2024/01/27 00:57:39;;;;;;;13.30;2.88;;;;;;;4.31;80.75;102179.84;7394179;19;20094;-68
2024/01/27 01:00:10;;;;;;;17.50;3.00;;;;;;;4.30;81.06;102173.78;7394116;19;20015;-68
2024/01/27 01:02:40;;;;;;;12.43;2.25;;;;;;;4.31;81.93;102174.63;7393634;19;20021;-68
2024/01/27 01:05:09;;;;;;;15.27;2.60;;;;;;;4.31;79.87;102182.44;7395119;19;20014;-67
2024/01/27 01:07:38;;;;;;;12.65;3.08;;;;;;;4.32;80.86;102169.50;7393052;19;20014;-68
2024/01/27 01:10:10;;;;;;;13.80;1.95;;;;;;;4.33;82.45;102186.84;7394618;19;20010;-67
2024/01/27 01:12:45;;;;;;;18.98;3.67;;;;;;;4.31;80.25;102175.53;7392749;19;20011;-67
2024/01/27 01:15:13;;;;;;;16.45;2.92;;;;;;;4.31;79.58;102200.63;7394670;19;20407;-67
2024/01/27 01:17:42;;;;;;;15.32;2.42;;;;;;;4.32;80.36;102190.31;7393783;19;20015;-68
2024/01/27 01:20:11;;;;;;;16.73;2.63;;;;;;;4.33;81.17;102212.81;7394274;19;20016;-68
2024/01/27 01:22:40;;;;;;;12.57;2.83;;;;;;;4.33;80.81;102214.56;7394700;19;20379;-68
2024/01/27 01:25:11;;;;;;;16.33;2.90;;;;;;;4.32;78.74;102229.28;7392676;19;20011;-68
2024/01/27 01:27:37;;;;;;;12.90;2.40;;;;;;;4.34;80.53;102209.38;7392679;19;20018;-67
2024/01/27 01:30:07;;;;;;;14.23;2.30;;;;;;;4.33;81.13;102207.63;7400605;19;20498;-68
2024/01/27 01:32:35;;;;;;;19.15;2.78;;;;;;;4.32;78.47;102236.16;7401657;19;20010;-67
2024/01/27 01:35:04;;;;;;;10.75;2.40;;;;;;;4.33;79.85;102233.59;7401512;19;20003;-68
2024/01/27 01:37:32;;;;;;;8.90;2.00;;;;;;;4.33;79.91;102230.13;7400438;19;20041;-67
2024/01/27 01:40:02;;;;;;;18.25;3.15;;;;;;;4.32;79.19;102229.28;7401359;19;20437;-68
2024/01/27 01:42:33;;;;;;;21.02;3.67;;;;;;;4.32;81.79;102229.28;7398911;19;20010;-68
2024/01/27 01:45:02;;;;;;;21.55;2.80;;;;;;;4.32;80.16;102239.66;7401867;19;20015;-67
2024/01/27 01:47:30;;;;;;;15.73;2.67;;;;;;;4.30;80.26;102225.75;7399749;19;20473;-67
2024/01/27 01:49:59;;;;;;;15.88;2.40;;;;;;;4.31;83.46;102227.50;7398307;19;20380;-68
2024/01/27 01:52:28;;;;;;;14.13;2.67;;;;;;;4.29;80.21;102247.34;7401537;19;20090;-68
2024/01/27 01:54:56;;;;;;;18.30;3.33;;;;;;;4.29;79.90;102231.78;7398987;19;20007;-68
2024/01/27 01:57:24;;;;;;;19.85;3.10;;;;;;;4.30;81.29;102227.47;7399621;19;20007;-67
2024/01/27 02:00:09;;;;;;;17.20;2.58;;;;;;;4.28;79.74;102247.31;7398332;19;20019;-67
2024/01/27 02:02:37;;;;;;;;;;;;;;;4.29;79.19;102244.75;7402333;19;20030;-67
2024/01/27 02:05:09;;;;;;;22.25;2.67;;;;;;;4.26;78.81;102249.88;7400513;19;20320;-67
2024/01/27 02:07:38;;;;;;;20.40;2.47;;;;;;;4.27;80.35;102232.56;7399716;19;20010;-68
2024/01/27 02:10:09;;;;;;;19.67;3.15;;;;;;;4.25;80.21;102274.09;7398093;19;20014;-68
2024/01/27 02:12:37;;;;;;;16.95;2.50;;;;;;;4.26;80.22;102228.19;7401858;19;20037;-68
2024/01/27 02:15:13;;;;;;;16.67;2.80;;;;;;;4.25;80.63;102232.53;7400138;19;20024;-67
2024/01/27 02:17:41;;;;;;;15.27;3.05;;;;;;;4.23;80.06;102244.59;7398115;19;20010;-68
2024/01/27 02:20:11;;;;;;;12.68;2.38;;;;;;;4.23;80.86;102280.94;7400032;19;20477;-67
2024/01/27 02:22:39;;;;;;;20.92;2.88;;;;;;;4.23;81.14;102240.28;7400332;19;20078;-67
2024/01/27 02:25:11;;;;;;;13.43;2.00;;;;;;;4.23;82.34;102244.59;7400290;19;20015;-67
2024/01/27 02:27:39;;;;;;;15.93;2.70;;;;;;;4.21;82.10;102239.34;7399073;19;20102;-67
2024/01/27 02:30:09;;;;;;;20.80;3.08;;;;;;;4.21;83.35;102257.53;7397790;19;20473;-68
2024/01/27 02:32:38;;;;;;;17.95;3.42;;;;;;;4.21;83.85;102236.75;7400002;19;20074;-67
2024/01/27 02:35:08;;;;;;;14.45;2.92;;;;;;;4.17;83.56;102255.69;7397485;19;20015;-68
2024/01/27 02:37:36;;;;;;;20.65;2.72;;;;;;;4.17;84.16;102240.09;7398178;19;20014;-68
2024/01/27 02:40:05;;;;;;;17.05;2.47;;;;;;;4.14;84.11;102241.72;7397559;19;20031;-67
2024/01/27 02:42:36;;;;;;;17.35;3.33;;;;;;;4.12;83.29;102252.09;7399612;19;20026;-68
2024/01/27 02:45:05;;;;;;;16.30;2.85;;;;;;;4.08;83.06;102260.59;7398333;19;20023;-67
2024/01/27 02:47:34;;;;;;;14.90;3.13;;;;;;;4.06;84.83;102259.69;7399005;19;20018;-68
2024/01/27 02:50:02;;;;;;;14.77;3.30;;;;;;;4.01;84.23;102275.13;7397082;19;20006;-68
2024/01/27 02:52:31;;;;;;;14.52;3.13;;;;;;;3.99;85.40;102270.72;7399271;19;20074;-67
2024/01/27 02:54:59;;;;;;;18.50;2.97;;;;;;;3.97;85.17;102278.47;7399302;19;20074;-68
2024/01/27 02:57:28;;;;;;;22.60;2.97;;;;;;;3.93;86.73;102261.06;7398135;19;20035;-68
2024/01/27 02:59:59;;;;;;;20.60;3.45;;;;;;;3.86;85.00;102265.16;7397200;19;20015;-68
2024/01/27 03:02:27;;;;;;;15.70;2.58;;;;;;;3.82;84.10;102257.25;7399425;19;20070;-68
2024/01/27 03:04:56;;;;;;;14.57;3.15;;;;;;;3.77;85.04;102264.88;7396728;19;20015;-68
2024/01/27 03:07:24;;;;;;;12.85;3.30;;;;;;;3.72;86.49;102253.47;7397524;19;20433;-68
2024/01/27 03:09:53;;;;;;;19.35;3.10;;;;;;;3.64;84.32;102262.72;7396748;19;20019;-68
2024/01/27 03:12:22;;;;;;;17.00;3.28;;;;;;;3.57;84.79;102285.91;7398662;19;20014;-68
2024/01/27 03:14:52;;;;;;;19.17;3.88;;;;;;;3.56;86.27;102270.28;7398554;19;20014;-68
2024/01/27 03:17:23;;;;;;;22.95;4.13;;;;;;;3.53;86.40;102272.78;7397677;19;20018;-68
2024/01/27 03:19:51;;;;;;;17.48;2.97;;;;;;;3.48;86.01;102277.81;7398856;19;20074;-68
2024/01/27 03:22:20;;;;;;;20.98;2.88;;;;;;;3.48;87.98;102269.16;7397889;19;20521;-67
2024/01/27 03:24:48;;;;;;;15.80;2.95;;;;;;;3.43;87.00;102274.19;7398287;19;20074;-68
2024/01/27 03:27:16;;;;;;;13.75;2.17;;;;;;;3.40;86.79;102280.19;7396176;19;20476;-68
2024/01/27 03:29:45;;;;;;;15.32;2.97;;;;;;;3.37;86.40;102290.44;7396363;19;20027;-68
2024/01/27 03:32:14;;;;;;;18.80;3.03;;;;;;;3.36;88.32;102291.28;7398112;19;20018;-67
2024/01/27 03:34:47;;;;;;;21.85;3.30;;;;;;;3.33;87.08;102288.56;7397881;19;20031;-67
2024/01/27 03:37:16;;;;;;;20.25;3.05;;;;;;;3.33;86.67;102282.53;7397532;19;20014;-68
2024/01/27 03:39:45;;;;;;;18.50;2.80;;;;;;;3.32;87.05;102275.56;7397682;19;20021;-67
2024/01/27 03:42:14;;;;;;;15.13;2.22;;;;;;;3.30;87.46;102285.91;7397309;19;20020;-67
2024/01/27 03:44:42;;;;;;;17.60;2.97;;;;;;;3.30;86.79;102300.56;7397210;19;20014;-68
2024/01/27 03:47:10;;;;;;;17.77;2.58;;;;;;;3.29;87.18;102286.72;7396880;19;20027;-68
2024/01/27 03:49:39;;;;;;;18.67;3.65;;;;;;;3.30;86.95;102288.50;7395490;19;20015;-67
2024/01/27 03:52:10;;;;;;;14.13;2.20;;;;;;;3.30;87.55;102288.50;7394936;19;20015;-67
2024/01/27 03:54:40;;;;;;;21.48;3.33;;;;;;;3.27;85.76;102311.72;7397657;19;20070;-68
2024/01/27 03:57:08;;;;;;;19.33;3.03;;;;;;;3.26;86.31;102297.88;7396597;19;20074;-68
2024/01/27 03:59:37;;;;;;;14.50;3.20;;;;;;;3.28;89.84;102297.06;7395638;19;20015;-67
2024/01/27 04:02:06;;;;;;;15.05;3.13;;;;;;;3.26;88.04;102295.28;7396730;19;20019;-68
2024/01/27 04:04:34;;;;;;;13.82;2.35;;;;;;;3.23;88.64;102292.56;7396939;19;20082;-68
2024/01/27 04:07:03;;;;;;;19.88;3.00;;;;;;;3.23;89.91;102305.53;7396362;19;20083;-68
2024/01/27 04:09:34;;;;;;;15.25;2.55;;;;;;;3.22;89.71;102309.00;7394941;19;20017;-67
2024/01/27 04:12:03;;;;;;;12.20;2.25;;;;;;;3.20;90.36;102309.78;7396412;19;20019;-67
2024/01/27 04:14:31;;;;;;;19.52;3.05;;;;;;;3.18;88.03;102311.41;7394669;19;20073;-67
2024/01/27 04:17:00;;;;;;;14.20;2.83;;;;;;;3.17;89.01;102315.75;7395799;19;20031;-68
2024/01/27 04:19:28;;;;;;;16.05;3.20;;;;;;;3.15;88.77;102311.34;7396507;19;20011;-67
2024/01/27 04:21:57;;;;;;;14.80;3.10;;;;;;;3.14;90.63;102320.81;7396041;19;20015;-67
2024/01/27 04:24:25;;;;;;;15.18;2.80;;;;;;;3.11;87.24;102336.28;7396350;19;20018;-67
2024/01/27 04:26:56;;;;;;;16.52;2.78;;;;;;;3.10;89.21;102327.59;7395469;19;20476;-67
2024/01/27 04:29:25;;;;;;;17.40;2.92;;;;;;;3.08;88.33;102334.47;7395220;19;20482;-68
2024/01/27 04:31:53;;;;;;;15.18;2.83;;;;;;;3.07;88.95;102327.50;7396069;19;20074;-68
2024/01/27 04:34:22;;;;;;;19.10;3.28;;;;;;;3.09;89.12;102337.91;7395615;19;20478;-67
2024/01/27 04:36:52;;;;;;;17.27;3.20;;;;;;;3.07;89.95;102334.38;7395612;19;20019;-68
2024/01/27 04:39:20;;;;;;;12.35;2.13;;;;;;;3.06;89.08;102336.09;7396209;19;20011;-67
2024/01/27 04:41:49;;;;;;;12.95;2.60;;;;;;;3.05;89.01;102336.94;7395534;19;20014;-68
2024/01/27 04:44:20;;;;;;;15.10;2.65;;;;;;;3.05;88.41;102347.31;7395674;19;20027;-67
2024/01/27 04:46:48;;;;;;;13.77;1.95;;;;;;;3.04;89.84;102353.31;7394329;19;20086;-67
2024/01/27 04:49:17;;;;;;;15.10;3.10;;;;;;;3.06;89.54;102350.78;7394680;19;20011;-67
2024/01/27 04:51:46;;;;;;;14.07;3.00;;;;;;;3.06;90.33;102341.28;7395289;19;20024;-67
2024/01/27 04:54:14;;;;;;;12.70;2.38;;;;;;;3.05;90.32;102336.94;7395459;19;20010;-68
2024/01/27 04:56:43;;;;;;;16.65;2.45;;;;;;;3.03;90.66;102346.38;7394643;19;20505;-68
2024/01/27 04:59:11;;;;;;;11.80;2.35;;;;;;;3.03;90.30;102356.75;7393126;19;20019;-68
2024/01/27 05:01:46;;;;;;;15.30;3.10;;;;;;;3.01;88.94;102363.59;7395756;19;20415;-67
2024/01/27 05:04:15;;;;;;;17.02;2.70;;;;;;;3.01;88.99;102370.47;7399768;19;20014;-67
2024/01/27 05:06:46;;;;;;;17.30;2.78;;;;;;;3.02;91.11;102361.88;7399817;19;20019;-68
2024/01/27 05:09:16;;;;;;;12.52;2.30;;;;;;;3.01;89.91;102367.88;7402605;19;20031;-67
2024/01/27 05:11:45;;;;;;;22.83;3.35;;;;;;;2.99;89.09;102383.38;7402313;19;20007;-67
2024/01/27 05:14:14;;;;;;;17.00;2.90;;;;;;;3.00;89.03;102369.59;7402584;19;20066;-67
2024/01/27 05:16:45;;;;;;;14.23;2.42;;;;;;;3.00;89.88;102395.53;7399468;19;20023;-67
2024/01/27 05:19:15;;;;;;;18.90;3.25;;;;;;;2.99;90.12;102375.59;7402874;19;20010;-68
2024/01/27 05:21:43;;;;;;;10.73;2.45;;;;;;;3.00;89.54;102376.50;7401896;19;20502;-68
2024/01/27 05:24:12;;;;;;;20.27;2.75;;;;;;;2.99;89.80;102383.38;7402275;19;20028;-67
2024/01/27 05:26:40;;;;;;;13.90;2.83;;;;;;;3.02;91.70;102380.00;7401746;19;20027;-68
2024/01/27 05:29:08;;;;;;;16.90;2.50;;;;;;;3.01;90.38;102397.28;7401694;19;20075;-67
2024/01/27 05:31:37;;;;;;;12.88;2.75;;;;;;;3.02;90.26;102393.88;7402026;19;20018;-67
2024/01/27 05:34:08;;;;;;;14.13;2.50;;;;;;;3.02;91.97;102398.16;7401578;19;20017;-68
2024/01/27 05:36:36;;;;;;;14.10;2.83;;;;;;;2.99;90.77;102396.34;7401999;19;20014;-68
2024/01/27 05:39:06;;;;;;;21.20;2.67;;;;;;;2.97;90.57;102403.22;7401830;19;20018;-68
2024/01/27 05:41:35;;;;;;;12.07;2.55;;;;;;;2.99;91.90;102396.34;7401413;19;20017;-67
2024/01/27 05:44:03;;;;;;;17.40;2.67;;;;;;;2.97;91.71;102403.22;7401671;19;20015;-68
2024/01/27 05:46:31;;;;;;;22.65;3.17;;;;;;;2.96;91.41;102424.78;7401448;19;20015;-68
2024/01/27 05:49:02;;;;;;;19.20;3.17;;;;;;;2.95;91.95;102410.03;7401379;19;20031;-67
2024/01/27 05:51:33;;;;;;;24.13;3.67;;;;;;;2.94;91.76;102410.84;7398376;19;20007;-67
2024/01/27 05:54:02;;;;;;;11.98;2.53;;;;;;;2.94;91.29;102429.00;7401110;19;20356;-67
2024/01/27 05:56:30;;;;;;;13.10;3.03;;;;;;;2.96;93.05;102419.59;7398879;19;20091;-68
2024/01/27 05:59:00;;;;;;;18.35;2.97;;;;;;;2.96;93.11;102422.19;7400425;19;20019;-67
2024/01/27 06:01:28;;;;;;;17.75;3.25;;;;;;;2.97;93.18;102417.88;7401416;19;20018;-67
2024/01/27 06:03:57;;;;;;;19.90;3.45;;;;;;;2.97;94.26;102423.94;7397821;19;20024;-68
2024/01/27 06:06:25;;;;;;;20.48;3.70;;;;;;;2.98;94.44;102427.41;7400825;19;20027;-67
2024/01/27 06:08:56;;;;;;;17.73;2.78;;;;;;;2.97;94.68;102423.03;7400791;19;20067;-69
2024/01/27 06:11:28;;;;;;;17.02;3.30;;;;;;;2.97;93.74;102433.41;7398444;19;20031;-69
2024/01/27 06:13:58;;;;;;;15.85;2.60;;;;;;;2.97;93.01;102428.25;7400137;19;20015;-69
2024/01/27 06:16:26;;;;;;;15.60;2.85;;;;;;;2.99;94.06;102426.59;7400497;19;20015;-69
2024/01/27 06:18:56;;;;;;;16.05;2.65;;;;;;;3.01;93.49;102425.81;7400470;19;20078;-69
2024/01/27 06:21:24;;;;;;;23.45;3.63;;;;;;;3.03;93.53;102431.97;7400417;19;20028;-70
2024/01/27 06:23:55;;;;;;;15.40;3.10;;;;;;;3.05;92.39;102451.03;7397409;19;20006;-69
2024/01/27 06:26:24;;;;;;;21.38;3.08;;;;;;;3.07;93.14;102446.78;7400629;19;20014;-69
2024/01/27 06:28:52;;;;;;;18.38;2.88;;;;;;;3.13;91.57;102453.03;7397599;19;20021;-69
2024/01/27 06:31:21;;;;;;;15.70;2.90;;;;;;;3.16;92.55;102466.09;7397496;19;20082;-69
2024/01/27 06:33:49;;;;;;;15.60;3.08;;;;;;;3.20;93.54;102460.22;7397448;19;20018;-69
2024/01/27 06:36:18;;;;;;;15.00;2.55;;;;;;;3.24;93.77;102465.53;7399913;19;20019;-69
2024/01/27 06:38:46;;;;;;;18.13;3.05;;;;;;;3.26;93.30;102471.69;7397239;19;20011;-69
2024/01/27 06:41:17;;;;;;;22.95;2.85;;;;;;;3.29;93.57;102477.81;7399081;19;20014;-69
2024/01/27 06:43:45;;;;;;;16.23;3.33;;;;;;;3.31;92.70;102468.38;7396834;19;20023;-69
2024/01/27 06:46:14;;;;;;;17.95;3.53;;;;;;;3.31;92.63;102478.75;7399257;19;20018;-69
2024/01/27 06:48:43;;;;;;;18.92;3.30;;;;;;;3.32;92.73;102476.19;7396967;19;20014;-69
2024/01/27 06:51:11;;;;;;;22.42;3.65;;;;;;;3.34;93.32;102484.06;7397506;19;20035;-69
2024/01/27 06:53:40;;;;;;;16.55;2.97;;;;;;;3.35;93.22;102483.22;7396577;19;20423;-69
2024/01/27 06:56:09;;;;;;;21.55;3.15;;;;;;;3.37;93.87;102484.16;7399051;19;20010;-69
2024/01/27 06:58:40;;;;;;;12.10;2.70;;;;;;;3.38;93.57;102478.16;7396766;19;20014;-69
2024/01/27 07:01:10;;;;;;;18.88;3.17;;;;;;;3.39;94.21;102491.16;7397515;19;20091;-69
2024/01/27 07:03:39;;;;;;;19.88;3.13;;;;;;;3.39;93.60;102488.56;7398786;19;20007;-69
2024/01/27 07:06:08;;;;;;;11.35;2.80;;;;;;;3.43;95.34;102493.03;7398415;19;20027;-69
2024/01/27 07:08:36;;;;;;;16.60;2.35;;;;;;;3.45;94.72;102492.22;7396301;19;20031;-69
2024/01/27 07:11:05;;;;;;;16.77;3.58;;;;;;;3.46;95.36;102497.44;7397275;19;20081;-69
2024/01/27 07:13:40;;;;;;;17.08;3.38;;;;;;;3.47;95.62;102512.19;7396019;19;20418;-69
2024/01/27 07:16:11;;;;;;;17.63;2.85;;;;;;;3.46;93.25;102509.56;7398720;19;20018;-69
2024/01/27 07:18:39;;;;;;;19.35;3.75;;;;;;;3.48;94.17;102516.56;7396434;19;20018;-69
2024/01/27 07:21:08;;;;;;;19.63;3.25;;;;;;;3.49;94.51;102510.56;7399683;19;20078;-69
2024/01/27 07:23:36;;;;;;;13.98;2.90;;;;;;;3.50;92.61;102527.00;7398354;19;20014;-69
2024/01/27 07:26:05;;;;;;;19.23;3.95;;;;;;;3.50;92.77;102514.03;7397012;19;20027;-69
2024/01/27 07:28:34;;;;;;;18.10;3.13;;;;;;;3.50;94.07;102520.13;7395810;19;20477;-69
2024/01/27 07:31:02;;;;;;;15.18;3.67;;;;;;;3.51;92.72;102527.03;7396644;19;20027;-69
2024/01/27 07:33:41;;;;;;;23.48;6.13;;;;;;;3.52;92.66;102538.31;7397872;19;20015;-69
2024/01/27 07:36:11;;;;;;;20.33;3.85;;;;;;;3.54;94.49;102541.88;7398338;19;20021;-73
2024/01/27 07:38:39;;;;;;;17.08;4.05;;;;;;;3.57;94.88;102535.06;7396051;19;20015;-68
2024/01/27 07:41:08;;;;;;;15.73;3.28;;;;;;;3.60;93.18;102536.88;7395946;19;20027;-69
2024/01/27 07:43:36;;;;;;;23.20;3.72;;;;;;;3.59;92.38;102564.56;7395729;19;20044;-68
2024/01/27 07:46:05;;;;;;;19.65;3.95;;;;;;;3.59;92.90;102546.38;7397385;19;20027;-68
2024/01/27 07:48:33;;;;;;;20.00;3.63;;;;;;;3.68;94.54;102551.03;7395537;19;20423;-69
2024/01/27 07:51:05;;;;;;;17.05;2.70;;;;;;;3.70;92.17;102559.75;7396157;19;20028;-69
2024/01/27 07:53:33;;;;;;;18.25;2.90;;;;;;;3.74;94.00;102566.81;7397605;19;20023;-68
2024/01/27 07:56:02;;;;;;;15.13;2.80;;;;;;;3.77;92.08;102558.25;7397325;19;20077;-69
2024/01/27 07:58:30;;;;;;;20.92;3.83;;;;;;;3.80;93.40;102566.16;7395152;19;20011;-69
2024/01/27 08:00:59;;;;;;;18.08;3.25;;;;;;;3.81;94.04;102567.91;7395200;19;20023;-68
2024/01/27 08:03:27;;;;;;;21.27;4.32;;;;;;;3.83;92.06;102562.78;7394747;19;20077;-68
2024/01/27 08:05:55;;;;;;;19.58;3.38;;;;;;;3.85;92.58;102574.97;7396824;19;20023;-68
2024/01/27 08:08:26;;;;;;;23.95;4.30;;;;;;;3.87;91.72;102580.25;7394647;19;20014;-68
2024/01/27 08:10:55;;;;;;;19.83;3.67;;;;;;;3.89;91.81;102571.69;7395985;19;20031;-68
2024/01/27 08:13:24;;;;;;;20.02;3.97;;;;;;;3.93;93.81;102583.06;7396098;19;20011;-69
2024/01/27 08:15:52;;;;;;;19.42;4.60;;;;;;;3.96;93.22;102574.50;7396463;19;20022;-68
2024/01/27 08:18:27;;;;;;;23.35;4.03;;;;;;;3.96;91.36;102582.28;7394156;19;20492;-69
2024/01/27 08:20:56;;;;;;;23.58;3.63;;;;;;;3.97;92.11;102584.03;7393757;19;20018;-68
2024/01/27 08:23:27;;;;;;;19.85;3.20;;;;;;;4.00;92.26;102590.22;7393710;19;20007;-68
2024/01/27 08:25:55;;;;;;;19.85;3.47;;;;;;;4.02;93.21;102596.38;7394128;19;20077;-68
2024/01/27 08:28:24;;;;;;;24.92;3.88;;;;;;;4.04;92.61;102593.81;7394219;19;20014;-68
2024/01/27 08:30:53;;;;;;;20.20;4.72;;;;;;;4.07;94.35;102588.75;7394188;19;20015;-68
2024/01/27 08:33:21;;;;;;;14.52;4.25;;;;;;;4.09;91.10;102605.25;7395671;19;20385;-68
2024/01/27 08:35:51;;;;;;;19.75;4.35;;;;;;;4.12;93.66;102594.06;7393590;19;20010;-69
2024/01/27 08:38:20;;;;;;;23.98;4.55;;;;;;;4.14;91.84;102601.09;7391375;19;20010;-68
2024/01/27 08:40:51;;;;;;;18.88;3.90;;;;;;;4.17;93.73;102614.22;7395743;19;20023;-69
2024/01/27 08:43:19;;;;;;;14.82;3.85;;;;;;;4.20;93.28;102616.03;7395963;19;20028;-68
2024/01/27 08:45:48;;;;;;;19.77;4.97;;;;;;;4.20;90.19;102623.81;7393562;19;20410;-68
2024/01/27 08:48:16;;;;;;;17.63;3.60;;;;;;;4.22;90.38;102620.44;7393970;19;20023;-69
2024/01/27 08:50:44;;;;;;;20.98;4.85;;;;;;;4.23;91.37;102624.81;7394661;19;20024;-69
2024/01/27 08:53:13;;;;;;;16.90;4.43;;;;;;;4.28;93.53;102627.56;7393294;19;20018;-69
2024/01/27 08:55:41;;;;;;;17.02;4.13;;;;;;;4.30;91.01;102641.50;7394884;19;20011;-69
2024/01/27 08:58:12;;;;;;;21.63;5.38;;;;;;;4.31;92.18;102640.66;7393087;19;20039;-69
2024/01/27 09:00:41;;;;;;;22.92;6.43;;;;;;;4.34;91.95;102638.16;7393377;19;20015;-69
2024/01/27 09:03:09;;;;;;;22.27;5.22;;;;;;;4.35;90.90;102645.13;7393064;19;20022;-69
2024/01/27 09:05:38;;;;;;;20.15;4.63;;;;;;;4.35;89.26;102646.88;7394827;19;20019;-69
2024/01/27 09:08:07;;;;;;;20.13;5.25;;;;;;;4.38;90.84;102660.81;7393305;19;20485;-69
2024/01/27 09:10:36;;;;;;;20.63;4.57;;;;;;;4.41;91.46;102662.66;7392738;19;20010;-69
2024/01/27 09:13:05;;;;;;;22.92;5.85;;;;;;;4.45;93.18;102668.84;7393868;19;20031;-69
2024/01/27 09:15:36;;;;;;;19.52;4.40;;;;;;;4.45;91.03;102669.72;7394707;19;20025;-69
2024/01/27 09:18:05;;;;;;;24.10;4.45;;;;;;;4.45;89.19;102676.63;7392568;19;20367;-69
2024/01/27 09:20:34;;;;;;;20.80;4.43;;;;;;;4.43;87.68;102670.50;7393756;19;20033;-69
2024/01/27 09:23:02;;;;;;;23.08;4.53;;;;;;;4.45;90.45;102663.63;7394268;19;20036;-68
2024/01/27 09:25:31;;;;;;;29.70;5.13;;;;;;;4.46;88.69;102668.91;7393998;19;20023;-68
2024/01/27 09:28:00;;;;;;;28.50;5.25;;;;;;;4.49;92.14;102663.81;7390893;19;20042;-68
2024/01/27 09:30:29;;;;;;;17.30;4.32;;;;;;;4.50;89.79;102672.47;7392310;19;20033;-69
2024/01/27 09:33:00;;;;;;;18.65;3.92;;;;;;;4.49;89.78;102668.13;7392747;19;20470;-68
2024/01/27 09:35:28;;;;;;;22.05;4.60;;;;;;;4.51;92.05;102669.94;7392888;19;20078;-69
2024/01/27 09:37:57;;;;;;;19.85;3.97;;;;;;;4.52;89.26;102689.00;7392165;19;20019;-69
2024/01/27 09:40:25;;;;;;;19.05;5.70;;;;;;;4.55;91.55;102679.63;7393592;19;20502;-68
2024/01/27 09:42:55;;;;;;;20.55;5.60;;;;;;;4.58;91.63;102684.03;7393516;19;20027;-69
2024/01/27 09:45:25;;;;;;;18.25;5.15;;;;;;;4.60;90.51;102676.28;7392886;19;20018;-68
2024/01/27 09:47:54;;;;;;;22.60;5.80;;;;;;;4.62;90.93;102690.22;7392153;19;20082;-69
2024/01/27 09:50:25;;;;;;;24.20;5.72;;;;;;;4.61;91.97;102683.25;7397032;19;20017;-69
2024/01/27 09:52:54;;;;;;;18.48;5.20;;;;;;;4.61;90.40;102689.31;7397336;19;20011;-68
2024/01/27 09:55:23;;;;;;;32.10;6.63;;;;;;;4.65;92.91;102682.50;7400363;19;20007;-68
2024/01/27 09:57:52;;;;;;;20.67;4.30;;;;;;;4.64;88.49;102683.34;7398638;19;20082;-68
2024/01/27 10:00:28;;;;;;;21.13;5.00;;;;;;;4.65;90.58;102690.31;7398675;19;20036;-68
2024/01/27 10:03:03;;;;;;;18.05;4.15;;;;;;;4.66;90.46;102687.78;7400564;19;20421;-69
2024/01/27 10:05:35;;;;;;;18.08;4.53;;;;;;;4.66;90.65;102687.78;7400029;19;20430;-69
2024/01/27 10:08:03;;;;;;;18.95;4.22;;;;;;;4.70;91.37;102715.66;7398433;19;20426;-69
2024/01/27 10:10:31;;;;;;;25.40;5.10;;;;;;;4.67;88.19;102689.53;7400556;19;20014;-69
2024/01/27 10:13:03;;;;;;;19.30;3.97;;;;;;;4.68;90.45;102698.25;7399996;19;20498;-69
2024/01/27 10:15:31;;;;;;;21.08;4.50;;;;;;;4.67;88.14;102709.47;7400036;19;20014;-69
2024/01/27 10:18:07;;;;;;;21.02;4.70;;;;;;;4.67;89.18;102697.34;7397558;19;20070;-69
2024/01/27 10:20:39;;;;;;;15.55;3.88;;;;;;;4.66;87.02;102716.41;7400544;19;20014;-69
2024/01/27 10:23:14;;;;;;;19.30;4.07;;;;;;;4.68;89.02;102700.84;7398028;19;20023;-69
2024/01/27 10:25:42;;;;;;;23.05;4.75;;;;;;;4.71;88.56;102699.22;7400153;19;20031;-69
2024/01/27 10:28:12;;;;;;;19.77;5.00;;;;;;;4.71;88.02;102695.72;7398393;19;20010;-69
2024/01/27 10:30:40;;;;;;;23.92;5.18;;;;;;;4.71;87.75;102706.13;7400434;19;20035;-69
2024/01/27 10:33:10;;;;;;;14.88;3.90;;;;;;;4.71;89.58;102700.94;7399987;19;20020;-69
2024/01/27 10:35:41;;;;;;;19.05;4.07;;;;;;;4.71;86.77;102717.44;7399557;19;20014;-69
2024/01/27 10:38:10;;;;;;;18.38;4.47;;;;;;;4.73;88.97;102694.94;7397738;19;20014;-69
2024/01/27 10:40:39;;;;;;;18.13;4.22;;;;;;;4.77;89.89;102695.06;7399135;19;20435;-69
2024/01/27 10:43:08;;;;;;;13.32;4.25;;;;;;;4.80;89.18;102697.75;7397194;19;20018;-69
2024/01/27 10:45:39;;;;;;;17.23;4.72;;;;;;;4.82;88.25;102704.78;7399490;19;20015;-68
2024/01/27 10:48:10;;;;;;;18.83;4.55;;;;;;;4.84;89.00;102697.00;7397865;19;20023;-69
2024/01/27 10:50:43;;;;;;;15.00;4.35;;;;;;;4.86;88.85;102698.84;7399842;19;20103;-70
2024/01/27 10:53:18;;;;;;;24.30;4.32;;;;;;;4.89;89.36;102706.75;7396856;19;20056;-69
2024/01/27 10:55:47;;;;;;;19.35;4.35;;;;;;;4.93;88.90;102707.75;7399471;19;20018;-69
2024/01/27 10:58:16;;;;;;;19.10;4.30;;;;;;;4.91;87.95;102704.19;7396310;19;20019;-69
2024/01/27 11:00:54;;;;;;;16.48;3.92;;;;;;;4.91;87.34;102725.00;7395895;19;20090;-68
2024/01/27 11:03:31;;;;;;;17.48;4.38;;;;;;;4.92;86.70;102723.31;7396228;19;20231;-69
2024/01/27 11:06:03;;;;;;;12.82;4.55;;;;;;;4.94;88.40;102714.72;7398991;19;20078;-69
2024/01/27 11:08:32;;;;;;;22.75;5.00;;;;;;;4.97;88.40;102716.53;7395807;19;20018;-69
2024/01/27 11:11:01;;;;;;;15.50;3.60;;;;;;;4.99;88.07;102710.56;7397658;19;20023;-69
2024/01/27 11:13:30;;;;;;;17.30;4.40;;;;;;;5.00;88.35;102701.88;7397645;19;20537;-69
2024/01/27 11:15:59;;;;;;;23.85;4.43;;;;;;;5.01;88.54;102706.25;7398033;19;20014;-69
2024/01/27 11:18:29;;;;;;;16.95;3.90;;;;;;;5.02;86.78;102725.38;7395784;19;20495;-69
2024/01/27 11:21:00;;;;;;;19.67;4.80;;;;;;;5.05;89.77;102721.16;7395573;19;20373;-69
2024/01/27 11:23:38;;;;;;;27.35;5.28;;;;;;;5.09;87.63;102723.84;7395483;19;20366;-69
2024/01/27 11:26:08;;;;;;;20.35;4.68;;;;;;;5.12;88.21;102723.94;7397144;19;20355;-68
2024/01/27 11:28:43;;;;;;;19.35;4.18;;;;;;;5.10;86.08;102713.50;7395711;19;20377;-69
2024/01/27 11:31:12;;;;;;;28.65;5.97;;;;;;;5.12;86.43;102747.34;7397200;19;20018;-69
2024/01/27 11:33:51;;;;;;;13.65;4.30;;;;;;;5.11;86.42;102743.00;7397466;19;20027;-69
2024/01/27 11:36:24;;;;;;;17.92;4.78;;;;;;;5.08;85.60;102733.38;7397138;19;20369;-69